To NAV CANADA Home Page Login to a new session Search on AWWS site Disclaimer Vers la page française équivalente Tips FAQ What's new on the site To the Forecasts and Observations / NOTAM section To "File a Flight Plan" website Publications and other links Update of the User's profile FIC Telephone Numbers My Weather Data Folder Route Weather Data Regional Weather Data Local Weather Data To the Forecasts and Observations / NOTAM section
Request Generated 04/24/2019 at 16:07:49 UTC . Weather information available at that time is displayed.

METAR/TAF

KUUJJUAQ/QC    

METAR CYVP 241600Z 07006KT 060V130 15SM FEW040 M07/M13 A3021 RMK SC1 SC TR SLP237=
METAR CYVP 241500Z VRB02KT 15SM FEW050 M08/M14 A3022 RMK SC1 SC TR SLP240=
METAR CYVP 241400Z 13004KT 070V150 15SM FEW020 FEW050 M09/M14 A3023 RMK CF1SC1 CF TR SC TR SLP244=

TAF CYVP 241138Z 2412/2424 VRB03KT P6SM FEW030
BECMG 2416/2418 16008KT
RMK NXT FCST BY 241800Z=
Your time UTC time
Weather data provided by Environment Canada and NAV CANADA